sensor_id;sensor_type;location;lat;lon;timestamp;P1;durP1;ratioP1;P2;durP2;ratioP2
12925;SDS011;6529;50.566;9.774;2023-11-18T00:00:21;3.70;;;3.30;;
12925;SDS011;6529;50.566;9.774;2023-11-18T00:02:50;5.77;;;3.27;;
12925;SDS011;6529;50.566;9.774;2023-11-18T00:05:16;7.20;;;3.50;;
12925;SDS011;6529;50.566;9.774;2023-11-18T00:07:42;5.97;;;3.40;;
12925;SDS011;6529;50.566;9.774;2023-11-18T00:10:08;3.83;;;3.23;;
12925;SDS011;6529;50.566;9.774;2023-11-18T00:12:35;4.63;;;3.13;;
12925;SDS011;6529;50.566;9.774;2023-11-18T00:15:01;5.37;;;3.40;;
12925;SDS011;6529;50.566;9.774;2023-11-18T00:17:29;3.90;;;3.07;;
12925;SDS011;6529;50.566;9.774;2023-11-18T00:19:57;6.33;;;3.20;;
12925;SDS011;6529;50.566;9.774;2023-11-18T00:22:23;3.90;;;3.27;;
12925;SDS011;6529;50.566;9.774;2023-11-18T00:24:48;3.80;;;2.90;;
12925;SDS011;6529;50.566;9.774;2023-11-18T00:27:14;6.33;;;3.10;;
12925;SDS011;6529;50.566;9.774;2023-11-18T00:29:40;5.67;;;3.23;;
12925;SDS011;6529;50.566;9.774;2023-11-18T00:32:06;3.40;;;2.80;;
12925;SDS011;6529;50.566;9.774;2023-11-18T00:34:32;4.67;;;3.20;;
12925;SDS011;6529;50.566;9.774;2023-11-18T00:36:58;5.80;;;3.00;;
12925;SDS011;6529;50.566;9.774;2023-11-18T00:39:27;4.27;;;2.63;;
12925;SDS011;6529;50.566;9.774;2023-11-18T00:41:53;7.20;;;3.00;;
12925;SDS011;6529;50.566;9.774;2023-11-18T00:44:18;3.50;;;2.80;;
12925;SDS011;6529;50.566;9.774;2023-11-18T00:46:44;4.33;;;2.80;;
12925;SDS011;6529;50.566;9.774;2023-11-18T00:49:09;4.43;;;2.67;;
12925;SDS011;6529;50.566;9.774;2023-11-18T00:51:36;4.63;;;2.80;;
12925;SDS011;6529;50.566;9.774;2023-11-18T00:54:02;3.20;;;2.53;;
12925;SDS011;6529;50.566;9.774;2023-11-18T00:56:30;3.90;;;2.43;;
12925;SDS011;6529;50.566;9.774;2023-11-18T00:58:56;3.87;;;2.77;;
12925;SDS011;6529;50.566;9.774;2023-11-18T01:01:22;4.10;;;2.60;;
12925;SDS011;6529;50.566;9.774;2023-11-18T01:03:47;3.70;;;2.80;;
12925;SDS011;6529;50.566;9.774;2023-11-18T01:06:13;3.90;;;2.83;;
12925;SDS011;6529;50.566;9.774;2023-11-18T01:08:45;3.40;;;2.20;;
12925;SDS011;6529;50.566;9.774;2023-11-18T01:11:15;4.07;;;2.67;;
12925;SDS011;6529;50.566;9.774;2023-11-18T01:13:44;6.57;;;3.00;;
12925;SDS011;6529;50.566;9.774;2023-11-18T01:16:19;5.30;;;2.50;;
12925;SDS011;6529;50.566;9.774;2023-11-18T01:18:45;4.50;;;2.43;;
12925;SDS011;6529;50.566;9.774;2023-11-18T01:21:11;2.57;;;2.23;;
12925;SDS011;6529;50.566;9.774;2023-11-18T01:23:37;3.80;;;2.53;;
12925;SDS011;6529;50.566;9.774;2023-11-18T01:26:04;5.77;;;2.53;;
12925;SDS011;6529;50.566;9.774;2023-11-18T01:28:33;5.83;;;2.60;;
12925;SDS011;6529;50.566;9.774;2023-11-18T01:31:04;4.43;;;2.50;;
12925;SDS011;6529;50.566;9.774;2023-11-18T01:33:30;5.37;;;2.80;;
12925;SDS011;6529;50.566;9.774;2023-11-18T01:35:57;3.67;;;2.40;;
12925;SDS011;6529;50.566;9.774;2023-11-18T01:38:23;4.17;;;2.77;;
12925;SDS011;6529;50.566;9.774;2023-11-18T01:40:51;4.00;;;3.00;;
12925;SDS011;6529;50.566;9.774;2023-11-18T01:43:18;4.63;;;2.23;;
12925;SDS011;6529;50.566;9.774;2023-11-18T01:45:44;3.77;;;2.47;;
12925;SDS011;6529;50.566;9.774;2023-11-18T01:48:09;2.80;;;2.23;;
12925;SDS011;6529;50.566;9.774;2023-11-18T01:50:36;2.53;;;2.30;;
12925;SDS011;6529;50.566;9.774;2023-11-18T01:53:03;3.60;;;2.03;;
12925;SDS011;6529;50.566;9.774;2023-11-18T01:55:29;4.07;;;2.37;;
12925;SDS011;6529;50.566;9.774;2023-11-18T01:57:55;2.57;;;2.17;;
12925;SDS011;6529;50.566;9.774;2023-11-18T02:00:21;2.60;;;2.20;;
12925;SDS011;6529;50.566;9.774;2023-11-18T02:02:48;3.27;;;2.50;;
12925;SDS011;6529;50.566;9.774;2023-11-18T02:05:14;3.70;;;2.53;;
12925;SDS011;6529;50.566;9.774;2023-11-18T02:07:40;4.10;;;2.60;;
12925;SDS011;6529;50.566;9.774;2023-11-18T02:10:06;5.87;;;2.80;;
12925;SDS011;6529;50.566;9.774;2023-11-18T02:12:38;3.30;;;2.60;;
12925;SDS011;6529;50.566;9.774;2023-11-18T02:15:16;2.63;;;2.23;;
12925;SDS011;6529;50.566;9.774;2023-11-18T02:17:44;3.17;;;2.20;;
12925;SDS011;6529;50.566;9.774;2023-11-18T02:20:10;6.33;;;2.80;;
12925;SDS011;6529;50.566;9.774;2023-11-18T02:22:46;3.63;;;2.63;;
12925;SDS011;6529;50.566;9.774;2023-11-18T02:25:15;4.27;;;2.90;;
12925;SDS011;6529;50.566;9.774;2023-11-18T02:27:42;3.70;;;2.80;;
12925;SDS011;6529;50.566;9.774;2023-11-18T02:30:08;3.60;;;2.37;;
12925;SDS011;6529;50.566;9.774;2023-11-18T02:35:37;4.13;;;2.43;;
12925;SDS011;6529;50.566;9.774;2023-11-18T02:38:08;3.53;;;2.90;;
12925;SDS011;6529;50.566;9.774;2023-11-18T02:40:36;3.37;;;2.50;;
12925;SDS011;6529;50.566;9.774;2023-11-18T02:43:08;3.50;;;2.60;;
12925;SDS011;6529;50.566;9.774;2023-11-18T02:45:35;4.60;;;3.23;;
12925;SDS011;6529;50.566;9.774;2023-11-18T02:48:02;4.50;;;2.93;;
12925;SDS011;6529;50.566;9.774;2023-11-18T02:50:31;5.00;;;2.70;;
12925;SDS011;6529;50.566;9.774;2023-11-18T02:52:57;4.97;;;2.83;;
12925;SDS011;6529;50.566;9.774;2023-11-18T02:55:23;3.73;;;2.80;;
12925;SDS011;6529;50.566;9.774;2023-11-18T02:57:49;3.93;;;2.93;;
12925;SDS011;6529;50.566;9.774;2023-11-18T03:00:16;3.67;;;2.67;;
12925;SDS011;6529;50.566;9.774;2023-11-18T03:02:48;4.23;;;3.00;;
12925;SDS011;6529;50.566;9.774;2023-11-18T03:05:16;4.17;;;3.00;;
12925;SDS011;6529;50.566;9.774;2023-11-18T03:07:42;4.03;;;2.83;;
12925;SDS011;6529;50.566;9.774;2023-11-18T03:10:15;3.27;;;2.60;;
12925;SDS011;6529;50.566;9.774;2023-11-18T03:12:47;5.47;;;3.03;;
12925;SDS011;6529;50.566;9.774;2023-11-18T03:15:13;4.03;;;2.77;;
12925;SDS011;6529;50.566;9.774;2023-11-18T03:17:42;4.97;;;2.83;;
12925;SDS011;6529;50.566;9.774;2023-11-18T03:20:09;4.20;;;2.67;;
12925;SDS011;6529;50.566;9.774;2023-11-18T03:22:36;4.27;;;2.73;;
12925;SDS011;6529;50.566;9.774;2023-11-18T03:25:02;2.90;;;2.37;;
12925;SDS011;6529;50.566;9.774;2023-11-18T03:27:30;5.33;;;3.00;;
12925;SDS011;6529;50.566;9.774;2023-11-18T03:29:55;4.30;;;3.10;;
12925;SDS011;6529;50.566;9.774;2023-11-18T03:32:21;4.17;;;2.60;;
12925;SDS011;6529;50.566;9.774;2023-11-18T03:34:46;3.90;;;2.70;;
12925;SDS011;6529;50.566;9.774;2023-11-18T03:37:12;4.43;;;2.57;;
12925;SDS011;6529;50.566;9.774;2023-11-18T03:39:38;5.63;;;2.60;;
12925;SDS011;6529;50.566;9.774;2023-11-18T03:42:03;3.57;;;2.70;;
12925;SDS011;6529;50.566;9.774;2023-11-18T03:44:29;3.93;;;2.80;;
12925;SDS011;6529;50.566;9.774;2023-11-18T03:46:54;3.10;;;2.40;;
12925;SDS011;6529;50.566;9.774;2023-11-18T03:49:20;3.07;;;2.47;;
12925;SDS011;6529;50.566;9.774;2023-11-18T03:51:46;6.20;;;3.03;;
12925;SDS011;6529;50.566;9.774;2023-11-18T03:54:12;3.20;;;2.50;;
12925;SDS011;6529;50.566;9.774;2023-11-18T03:56:38;3.97;;;2.40;;
12925;SDS011;6529;50.566;9.774;2023-11-18T03:59:03;3.43;;;2.47;;
12925;SDS011;6529;50.566;9.774;2023-11-18T04:01:29;3.20;;;2.43;;
12925;SDS011;6529;50.566;9.774;2023-11-18T04:03:55;3.43;;;2.43;;
12925;SDS011;6529;50.566;9.774;2023-11-18T04:06:21;4.23;;;2.60;;
12925;SDS011;6529;50.566;9.774;2023-11-18T04:08:48;3.10;;;2.43;;
12925;SDS011;6529;50.566;9.774;2023-11-18T04:11:14;3.87;;;2.57;;
12925;SDS011;6529;50.566;9.774;2023-11-18T04:13:43;3.93;;;2.40;;
12925;SDS011;6529;50.566;9.774;2023-11-18T04:16:15;2.83;;;2.53;;
12925;SDS011;6529;50.566;9.774;2023-11-18T04:18:42;4.50;;;2.50;;
12925;SDS011;6529;50.566;9.774;2023-11-18T04:21:08;3.77;;;2.67;;
12925;SDS011;6529;50.566;9.774;2023-11-18T04:23:36;3.80;;;2.47;;
12925;SDS011;6529;50.566;9.774;2023-11-18T04:26:03;3.07;;;2.40;;
12925;SDS011;6529;50.566;9.774;2023-11-18T04:28:29;3.40;;;2.63;;
12925;SDS011;6529;50.566;9.774;2023-11-18T04:30:55;4.27;;;2.30;;
12925;SDS011;6529;50.566;9.774;2023-11-18T04:33:21;2.90;;;2.50;;
12925;SDS011;6529;50.566;9.774;2023-11-18T04:35:46;3.57;;;2.70;;
12925;SDS011;6529;50.566;9.774;2023-11-18T04:38:12;4.03;;;2.37;;
12925;SDS011;6529;50.566;9.774;2023-11-18T04:40:38;3.33;;;2.53;;
12925;SDS011;6529;50.566;9.774;2023-11-18T04:43:06;3.80;;;2.30;;
12925;SDS011;6529;50.566;9.774;2023-11-18T04:45:31;3.97;;;2.50;;
12925;SDS011;6529;50.566;9.774;2023-11-18T04:47:57;3.93;;;2.40;;
12925;SDS011;6529;50.566;9.774;2023-11-18T04:50:24;3.60;;;2.37;;
12925;SDS011;6529;50.566;9.774;2023-11-18T04:52:50;3.97;;;2.77;;
12925;SDS011;6529;50.566;9.774;2023-11-18T04:55:15;3.37;;;2.40;;
12925;SDS011;6529;50.566;9.774;2023-11-18T04:57:41;3.40;;;2.43;;
12925;SDS011;6529;50.566;9.774;2023-11-18T05:00:07;3.63;;;2.37;;
12925;SDS011;6529;50.566;9.774;2023-11-18T05:02:39;2.77;;;2.20;;
12925;SDS011;6529;50.566;9.774;2023-11-18T05:05:05;3.70;;;2.63;;
12925;SDS011;6529;50.566;9.774;2023-11-18T05:07:31;3.87;;;2.57;;
12925;SDS011;6529;50.566;9.774;2023-11-18T05:09:58;4.13;;;2.33;;
12925;SDS011;6529;50.566;9.774;2023-11-18T05:12:24;3.33;;;2.50;;
12925;SDS011;6529;50.566;9.774;2023-11-18T05:14:49;2.53;;;2.20;;
12925;SDS011;6529;50.566;9.774;2023-11-18T05:17:15;2.93;;;2.20;;
12925;SDS011;6529;50.566;9.774;2023-11-18T05:19:41;4.60;;;2.60;;
12925;SDS011;6529;50.566;9.774;2023-11-18T05:22:07;3.57;;;1.90;;
12925;SDS011;6529;50.566;9.774;2023-11-18T05:24:33;3.30;;;2.40;;
12925;SDS011;6529;50.566;9.774;2023-11-18T05:26:58;2.57;;;2.37;;
12925;SDS011;6529;50.566;9.774;2023-11-18T05:29:27;3.57;;;2.30;;
12925;SDS011;6529;50.566;9.774;2023-11-18T05:31:53;3.83;;;2.70;;
12925;SDS011;6529;50.566;9.774;2023-11-18T05:34:19;3.07;;;1.93;;
12925;SDS011;6529;50.566;9.774;2023-11-18T05:36:46;3.63;;;2.80;;
12925;SDS011;6529;50.566;9.774;2023-11-18T05:39:12;3.47;;;2.47;;
12925;SDS011;6529;50.566;9.774;2023-11-18T05:41:39;3.67;;;2.33;;
12925;SDS011;6529;50.566;9.774;2023-11-18T05:44:10;3.33;;;1.93;;
12925;SDS011;6529;50.566;9.774;2023-11-18T05:46:42;4.27;;;2.67;;
12925;SDS011;6529;50.566;9.774;2023-11-18T05:49:11;3.23;;;2.23;;
12925;SDS011;6529;50.566;9.774;2023-11-18T05:51:38;2.63;;;1.97;;
12925;SDS011;6529;50.566;9.774;2023-11-18T05:54:08;3.43;;;2.33;;
12925;SDS011;6529;50.566;9.774;2023-11-18T05:56:34;2.50;;;2.23;;
12925;SDS011;6529;50.566;9.774;2023-11-18T05:58:59;2.50;;;2.17;;
12925;SDS011;6529;50.566;9.774;2023-11-18T06:01:28;3.20;;;2.50;;
12925;SDS011;6529;50.566;9.774;2023-11-18T06:03:54;3.57;;;2.23;;
12925;SDS011;6529;50.566;9.774;2023-11-18T06:06:19;6.40;;;3.13;;
12925;SDS011;6529;50.566;9.774;2023-11-18T06:08:46;3.67;;;2.43;;
12925;SDS011;6529;50.566;9.774;2023-11-18T06:11:12;4.67;;;2.50;;
12925;SDS011;6529;50.566;9.774;2023-11-18T06:13:39;3.23;;;2.50;;
12925;SDS011;6529;50.566;9.774;2023-11-18T06:16:22;3.97;;;2.50;;
12925;SDS011;6529;50.566;9.774;2023-11-18T06:18:50;3.53;;;2.10;;
12925;SDS011;6529;50.566;9.774;2023-11-18T06:21:17;4.00;;;2.60;;
12925;SDS011;6529;50.566;9.774;2023-11-18T06:23:45;3.50;;;2.57;;
12925;SDS011;6529;50.566;9.774;2023-11-18T06:26:12;2.90;;;2.57;;
12925;SDS011;6529;50.566;9.774;2023-11-18T06:28:39;4.40;;;2.77;;
12925;SDS011;6529;50.566;9.774;2023-11-18T06:31:06;3.27;;;2.40;;
12925;SDS011;6529;50.566;9.774;2023-11-18T06:33:43;4.43;;;2.90;;
12925;SDS011;6529;50.566;9.774;2023-11-18T06:36:10;3.87;;;2.93;;
12925;SDS011;6529;50.566;9.774;2023-11-18T06:38:42;5.03;;;3.10;;
12925;SDS011;6529;50.566;9.774;2023-11-18T06:41:11;5.20;;;3.00;;
12925;SDS011;6529;50.566;9.774;2023-11-18T06:43:38;4.80;;;3.00;;
12925;SDS011;6529;50.566;9.774;2023-11-18T06:46:14;5.83;;;3.27;;
12925;SDS011;6529;50.566;9.774;2023-11-18T06:48:40;4.57;;;3.30;;
12925;SDS011;6529;50.566;9.774;2023-11-18T06:51:05;4.47;;;2.93;;
12925;SDS011;6529;50.566;9.774;2023-11-18T06:53:33;4.23;;;3.00;;
12925;SDS011;6529;50.566;9.774;2023-11-18T06:55:59;6.20;;;3.27;;
12925;SDS011;6529;50.566;9.774;2023-11-18T06:58:25;4.10;;;3.17;;
12925;SDS011;6529;50.566;9.774;2023-11-18T07:00:51;3.33;;;2.90;;
12925;SDS011;6529;50.566;9.774;2023-11-18T07:03:17;5.17;;;3.90;;
12925;SDS011;6529;50.566;9.774;2023-11-18T07:05:43;4.07;;;3.37;;
12925;SDS011;6529;50.566;9.774;2023-11-18T07:08:09;4.53;;;3.57;;
12925;SDS011;6529;50.566;9.774;2023-11-18T07:10:35;5.37;;;4.03;;
12925;SDS011;6529;50.566;9.774;2023-11-18T07:13:03;5.00;;;3.60;;
12925;SDS011;6529;50.566;9.774;2023-11-18T07:15:28;4.87;;;3.67;;
12925;SDS011;6529;50.566;9.774;2023-11-18T07:17:54;6.17;;;4.20;;
12925;SDS011;6529;50.566;9.774;2023-11-18T07:20:19;20.97;;;9.70;;
12925;SDS011;6529;50.566;9.774;2023-11-18T07:22:45;13.97;;;6.93;;
12925;SDS011;6529;50.566;9.774;2023-11-18T07:25:10;10.83;;;6.33;;
12925;SDS011;6529;50.566;9.774;2023-11-18T07:27:36;8.27;;;4.33;;
12925;SDS011;6529;50.566;9.774;2023-11-18T07:30:01;5.97;;;3.70;;
12925;SDS011;6529;50.566;9.774;2023-11-18T07:32:28;5.33;;;3.77;;
12925;SDS011;6529;50.566;9.774;2023-11-18T07:34:54;6.83;;;4.20;;
12925;SDS011;6529;50.566;9.774;2023-11-18T07:37:20;7.33;;;4.13;;
12925;SDS011;6529;50.566;9.774;2023-11-18T07:39:47;7.90;;;4.50;;
12925;SDS011;6529;50.566;9.774;2023-11-18T07:42:13;5.13;;;4.10;;
12925;SDS011;6529;50.566;9.774;2023-11-18T07:44:40;7.13;;;4.73;;
12925;SDS011;6529;50.566;9.774;2023-11-18T07:47:06;5.00;;;4.03;;
12925;SDS011;6529;50.566;9.774;2023-11-18T07:49:35;6.63;;;4.17;;
12925;SDS011;6529;50.566;9.774;2023-11-18T07:52:01;5.90;;;4.30;;
12925;SDS011;6529;50.566;9.774;2023-11-18T07:54:27;6.90;;;4.40;;
12925;SDS011;6529;50.566;9.774;2023-11-18T07:56:53;6.93;;;3.90;;
12925;SDS011;6529;50.566;9.774;2023-11-18T07:59:19;5.80;;;4.00;;
12925;SDS011;6529;50.566;9.774;2023-11-18T08:01:45;6.23;;;4.37;;
12925;SDS011;6529;50.566;9.774;2023-11-18T08:04:11;6.17;;;4.23;;
12925;SDS011;6529;50.566;9.774;2023-11-18T08:06:38;5.73;;;4.07;;
12925;SDS011;6529;50.566;9.774;2023-11-18T08:09:04;6.13;;;4.17;;
12925;SDS011;6529;50.566;9.774;2023-11-18T08:11:35;7.10;;;4.20;;
12925;SDS011;6529;50.566;9.774;2023-11-18T08:14:01;5.97;;;4.03;;
12925;SDS011;6529;50.566;9.774;2023-11-18T08:16:27;5.70;;;4.00;;
12925;SDS011;6529;50.566;9.774;2023-11-18T08:18:54;6.37;;;4.50;;
12925;SDS011;6529;50.566;9.774;2023-11-18T08:21:20;6.60;;;4.30;;
12925;SDS011;6529;50.566;9.774;2023-11-18T08:23:47;5.80;;;4.10;;
12925;SDS011;6529;50.566;9.774;2023-11-18T08:26:13;5.47;;;3.90;;
12925;SDS011;6529;50.566;9.774;2023-11-18T08:28:38;5.90;;;4.23;;
12925;SDS011;6529;50.566;9.774;2023-11-18T08:31:05;6.77;;;4.70;;
12925;SDS011;6529;50.566;9.774;2023-11-18T08:33:31;7.67;;;4.93;;
12925;SDS011;6529;50.566;9.774;2023-11-18T08:35:58;7.37;;;4.80;;
12925;SDS011;6529;50.566;9.774;2023-11-18T08:38:24;5.90;;;4.73;;
12925;SDS011;6529;50.566;9.774;2023-11-18T08:40:50;8.17;;;5.03;;
12925;SDS011;6529;50.566;9.774;2023-11-18T08:43:16;7.20;;;4.90;;
12925;SDS011;6529;50.566;9.774;2023-11-18T08:45:42;11.17;;;6.13;;
12925;SDS011;6529;50.566;9.774;2023-11-18T08:48:08;67.77;;;33.13;;
12925;SDS011;6529;50.566;9.774;2023-11-18T08:50:34;57.20;;;31.00;;
12925;SDS011;6529;50.566;9.774;2023-11-18T08:53:00;14.93;;;9.70;;
12925;SDS011;6529;50.566;9.774;2023-11-18T08:55:30;10.20;;;6.97;;
12925;SDS011;6529;50.566;9.774;2023-11-18T08:58:09;9.27;;;6.00;;
12925;SDS011;6529;50.566;9.774;2023-11-18T09:00:50;9.57;;;6.20;;
12925;SDS011;6529;50.566;9.774;2023-11-18T09:03:21;11.23;;;6.90;;
12925;SDS011;6529;50.566;9.774;2023-11-18T09:06:00;9.97;;;6.73;;
12925;SDS011;6529;50.566;9.774;2023-11-18T09:08:42;9.37;;;6.97;;
12925;SDS011;6529;50.566;9.774;2023-11-18T09:11:12;9.60;;;5.80;;
12925;SDS011;6529;50.566;9.774;2023-11-18T09:13:42;6.93;;;5.43;;
12925;SDS011;6529;50.566;9.774;2023-11-18T09:16:10;8.60;;;6.10;;
12925;SDS011;6529;50.566;9.774;2023-11-18T09:18:40;8.77;;;6.70;;
12925;SDS011;6529;50.566;9.774;2023-11-18T09:24:10;7.57;;;5.67;;
12925;SDS011;6529;50.566;9.774;2023-11-18T09:26:38;10.87;;;6.17;;
12925;SDS011;6529;50.566;9.774;2023-11-18T09:29:12;7.67;;;5.57;;
12925;SDS011;6529;50.566;9.774;2023-11-18T09:31:42;9.37;;;6.10;;
12925;SDS011;6529;50.566;9.774;2023-11-18T09:34:15;8.57;;;6.13;;
12925;SDS011;6529;50.566;9.774;2023-11-18T09:36:41;9.23;;;6.10;;
12925;SDS011;6529;50.566;9.774;2023-11-18T09:39:10;9.43;;;6.30;;
12925;SDS011;6529;50.566;9.774;2023-11-18T09:41:54;8.10;;;5.70;;
12925;SDS011;6529;50.566;9.774;2023-11-18T09:44:23;7.20;;;5.77;;
12925;SDS011;6529;50.566;9.774;2023-11-18T09:46:53;9.30;;;6.87;;
12925;SDS011;6529;50.566;9.774;2023-11-18T09:49:29;9.07;;;6.13;;
12925;SDS011;6529;50.566;9.774;2023-11-18T09:52:04;11.33;;;8.10;;
12925;SDS011;6529;50.566;9.774;2023-11-18T09:54:33;11.63;;;8.87;;
12925;SDS011;6529;50.566;9.774;2023-11-18T09:57:20;9.80;;;7.10;;
12925;SDS011;6529;50.566;9.774;2023-11-18T09:59:58;9.00;;;6.63;;
12925;SDS011;6529;50.566;9.774;2023-11-18T10:02:35;10.83;;;7.33;;
12925;SDS011;6529;50.566;9.774;2023-11-18T10:05:06;9.63;;;6.67;;
12925;SDS011;6529;50.566;9.774;2023-11-18T10:07:38;11.27;;;6.80;;
12925;SDS011;6529;50.566;9.774;2023-11-18T10:10:06;11.13;;;7.53;;
12925;SDS011;6529;50.566;9.774;2023-11-18T10:12:40;10.23;;;7.20;;
12925;SDS011;6529;50.566;9.774;2023-11-18T10:15:17;12.43;;;6.87;;
12925;SDS011;6529;50.566;9.774;2023-11-18T10:17:48;9.60;;;6.60;;
12925;SDS011;6529;50.566;9.774;2023-11-18T10:23:08;15.40;;;10.43;;
12925;SDS011;6529;50.566;9.774;2023-11-18T10:25:35;24.97;;;16.60;;
12925;SDS011;6529;50.566;9.774;2023-11-18T10:31:07;12.07;;;7.80;;
12925;SDS011;6529;50.566;9.774;2023-11-18T10:33:38;11.00;;;7.97;;
12925;SDS011;6529;50.566;9.774;2023-11-18T10:36:16;11.90;;;8.43;;
12925;SDS011;6529;50.566;9.774;2023-11-18T10:38:47;11.67;;;8.00;;
12925;SDS011;6529;50.566;9.774;2023-11-18T10:41:14;14.67;;;8.07;;
12925;SDS011;6529;50.566;9.774;2023-11-18T10:43:41;12.07;;;8.47;;
12925;SDS011;6529;50.566;9.774;2023-11-18T10:46:10;15.50;;;8.20;;
12925;SDS011;6529;50.566;9.774;2023-11-18T10:51:11;14.30;;;8.43;;
12925;SDS011;6529;50.566;9.774;2023-11-18T10:53:51;12.20;;;8.70;;
12925;SDS011;6529;50.566;9.774;2023-11-18T10:56:26;11.47;;;6.83;;
12925;SDS011;6529;50.566;9.774;2023-11-18T10:58:57;9.63;;;7.60;;
12925;SDS011;6529;50.566;9.774;2023-11-18T11:01:31;9.00;;;6.33;;
12925;SDS011;6529;50.566;9.774;2023-11-18T11:03:58;8.93;;;6.47;;
12925;SDS011;6529;50.566;9.774;2023-11-18T11:06:24;8.60;;;6.50;;
12925;SDS011;6529;50.566;9.774;2023-11-18T11:08:51;9.33;;;6.60;;
12925;SDS011;6529;50.566;9.774;2023-11-18T11:11:20;9.37;;;6.47;;
12925;SDS011;6529;50.566;9.774;2023-11-18T11:13:47;8.67;;;6.33;;
12925;SDS011;6529;50.566;9.774;2023-11-18T11:16:16;10.07;;;6.83;;
12925;SDS011;6529;50.566;9.774;2023-11-18T11:18:45;10.13;;;7.30;;
12925;SDS011;6529;50.566;9.774;2023-11-18T11:21:16;10.70;;;7.30;;
12925;SDS011;6529;50.566;9.774;2023-11-18T11:35:04;10.17;;;8.07;;
12925;SDS011;6529;50.566;9.774;2023-11-18T11:37:34;10.83;;;7.50;;
12925;SDS011;6529;50.566;9.774;2023-11-18T11:40:02;10.43;;;7.40;;
12925;SDS011;6529;50.566;9.774;2023-11-18T11:42:34;11.03;;;7.77;;
12925;SDS011;6529;50.566;9.774;2023-11-18T11:44:59;10.50;;;7.33;;
12925;SDS011;6529;50.566;9.774;2023-11-18T11:47:27;9.23;;;6.63;;
12925;SDS011;6529;50.566;9.774;2023-11-18T11:50:11;10.40;;;6.67;;
12925;SDS011;6529;50.566;9.774;2023-11-18T11:52:48;9.53;;;6.43;;
12925;SDS011;6529;50.566;9.774;2023-11-18T11:55:38;11.23;;;7.07;;
12925;SDS011;6529;50.566;9.774;2023-11-18T11:58:30;12.23;;;6.67;;
12925;SDS011;6529;50.566;9.774;2023-11-18T12:00:58;8.03;;;6.17;;
12925;SDS011;6529;50.566;9.774;2023-11-18T12:03:26;9.23;;;6.57;;
12925;SDS011;6529;50.566;9.774;2023-11-18T12:05:55;9.53;;;6.73;;
12925;SDS011;6529;50.566;9.774;2023-11-18T12:08:24;10.43;;;7.60;;
12925;SDS011;6529;50.566;9.774;2023-11-18T12:10:50;8.80;;;6.37;;
12925;SDS011;6529;50.566;9.774;2023-11-18T12:13:21;10.47;;;7.47;;
12925;SDS011;6529;50.566;9.774;2023-11-18T12:18:19;11.47;;;7.37;;
12925;SDS011;6529;50.566;9.774;2023-11-18T12:20:46;12.43;;;8.20;;
12925;SDS011;6529;50.566;9.774;2023-11-18T12:23:16;12.43;;;8.90;;
12925;SDS011;6529;50.566;9.774;2023-11-18T12:25:46;12.53;;;8.50;;
12925;SDS011;6529;50.566;9.774;2023-11-18T12:28:17;11.70;;;8.00;;
12925;SDS011;6529;50.566;9.774;2023-11-18T12:30:55;12.33;;;7.57;;
12925;SDS011;6529;50.566;9.774;2023-11-18T12:33:21;10.83;;;7.30;;
12925;SDS011;6529;50.566;9.774;2023-11-18T12:41:05;7.30;;;5.03;;
12925;SDS011;6529;50.566;9.774;2023-11-18T12:43:49;6.27;;;4.73;;
12925;SDS011;6529;50.566;9.774;2023-11-18T12:49:36;6.23;;;4.73;;
12925;SDS011;6529;50.566;9.774;2023-11-18T12:52:06;8.27;;;5.17;;
12925;SDS011;6529;50.566;9.774;2023-11-18T12:54:33;5.70;;;4.50;;
12925;SDS011;6529;50.566;9.774;2023-11-18T12:57:02;7.23;;;4.87;;
12925;SDS011;6529;50.566;9.774;2023-11-18T12:59:31;8.47;;;5.47;;
12925;SDS011;6529;50.566;9.774;2023-11-18T13:02:01;7.03;;;5.00;;
12925;SDS011;6529;50.566;9.774;2023-11-18T13:04:32;8.53;;;4.80;;
12925;SDS011;6529;50.566;9.774;2023-11-18T13:07:05;6.13;;;4.20;;
12925;SDS011;6529;50.566;9.774;2023-11-18T13:09:33;5.17;;;3.70;;
12925;SDS011;6529;50.566;9.774;2023-11-18T13:12:01;5.47;;;4.03;;
12925;SDS011;6529;50.566;9.774;2023-11-18T13:14:33;6.50;;;4.50;;
12925;SDS011;6529;50.566;9.774;2023-11-18T13:17:04;6.90;;;4.57;;
12925;SDS011;6529;50.566;9.774;2023-11-18T13:19:33;5.23;;;4.17;;
12925;SDS011;6529;50.566;9.774;2023-11-18T13:22:00;5.60;;;4.27;;
12925;SDS011;6529;50.566;9.774;2023-11-18T13:24:28;6.13;;;4.57;;
12925;SDS011;6529;50.566;9.774;2023-11-18T13:26:56;6.93;;;5.20;;
12925;SDS011;6529;50.566;9.774;2023-11-18T13:29:23;6.73;;;4.57;;
12925;SDS011;6529;50.566;9.774;2023-11-18T13:31:49;6.40;;;4.30;;
12925;SDS011;6529;50.566;9.774;2023-11-18T13:34:18;6.33;;;4.67;;
12925;SDS011;6529;50.566;9.774;2023-11-18T13:36:45;6.93;;;4.90;;
12925;SDS011;6529;50.566;9.774;2023-11-18T13:39:17;6.33;;;4.70;;
12925;SDS011;6529;50.566;9.774;2023-11-18T13:41:44;7.63;;;5.03;;
12925;SDS011;6529;50.566;9.774;2023-11-18T13:44:10;8.27;;;5.30;;
12925;SDS011;6529;50.566;9.774;2023-11-18T13:46:38;7.83;;;5.20;;
12925;SDS011;6529;50.566;9.774;2023-11-18T13:49:05;8.90;;;5.10;;
12925;SDS011;6529;50.566;9.774;2023-11-18T13:51:31;8.03;;;5.33;;
12925;SDS011;6529;50.566;9.774;2023-11-18T13:53:58;7.90;;;5.10;;
12925;SDS011;6529;50.566;9.774;2023-11-18T13:56:24;6.50;;;4.90;;
12925;SDS011;6529;50.566;9.774;2023-11-18T13:58:52;7.40;;;4.67;;
12925;SDS011;6529;50.566;9.774;2023-11-18T14:01:19;8.87;;;5.80;;
12925;SDS011;6529;50.566;9.774;2023-11-18T14:03:46;6.87;;;4.73;;
12925;SDS011;6529;50.566;9.774;2023-11-18T14:06:13;8.37;;;5.07;;
12925;SDS011;6529;50.566;9.774;2023-11-18T14:08:42;8.63;;;5.57;;
12925;SDS011;6529;50.566;9.774;2023-11-18T14:11:09;8.70;;;5.40;;
12925;SDS011;6529;50.566;9.774;2023-11-18T14:13:35;8.47;;;5.00;;
12925;SDS011;6529;50.566;9.774;2023-11-18T14:16:02;7.27;;;5.53;;
12925;SDS011;6529;50.566;9.774;2023-11-18T14:18:29;7.67;;;5.00;;
12925;SDS011;6529;50.566;9.774;2023-11-18T14:20:55;7.33;;;5.67;;
12925;SDS011;6529;50.566;9.774;2023-11-18T14:23:21;7.70;;;5.30;;
12925;SDS011;6529;50.566;9.774;2023-11-18T14:25:48;8.33;;;5.43;;
12925;SDS011;6529;50.566;9.774;2023-11-18T14:28:14;8.07;;;5.80;;
12925;SDS011;6529;50.566;9.774;2023-11-18T14:30:39;8.07;;;5.47;;
12925;SDS011;6529;50.566;9.774;2023-11-18T14:33:05;9.43;;;6.00;;
12925;SDS011;6529;50.566;9.774;2023-11-18T14:35:34;8.13;;;5.70;;
12925;SDS011;6529;50.566;9.774;2023-11-18T14:38:00;7.57;;;5.80;;
12925;SDS011;6529;50.566;9.774;2023-11-18T14:40:26;9.23;;;6.40;;
12925;SDS011;6529;50.566;9.774;2023-11-18T14:42:53;8.00;;;6.00;;
12925;SDS011;6529;50.566;9.774;2023-11-18T14:45:19;8.80;;;5.80;;
12925;SDS011;6529;50.566;9.774;2023-11-18T14:47:45;7.83;;;6.00;;
12925;SDS011;6529;50.566;9.774;2023-11-18T14:50:13;7.33;;;5.33;;
12925;SDS011;6529;50.566;9.774;2023-11-18T14:52:51;8.30;;;5.50;;
12925;SDS011;6529;50.566;9.774;2023-11-18T14:55:23;7.90;;;5.80;;
12925;SDS011;6529;50.566;9.774;2023-11-18T14:57:52;9.10;;;6.30;;
12925;SDS011;6529;50.566;9.774;2023-11-18T15:00:17;9.10;;;6.40;;
12925;SDS011;6529;50.566;9.774;2023-11-18T15:02:53;8.80;;;5.73;;
12925;SDS011;6529;50.566;9.774;2023-11-18T15:05:22;8.93;;;6.30;;
12925;SDS011;6529;50.566;9.774;2023-11-18T15:07:49;8.43;;;5.20;;
12925;SDS011;6529;50.566;9.774;2023-11-18T15:10:18;7.93;;;5.60;;
12925;SDS011;6529;50.566;9.774;2023-11-18T15:12:45;7.53;;;5.57;;
12925;SDS011;6529;50.566;9.774;2023-11-18T15:15:12;10.77;;;5.70;;
12925;SDS011;6529;50.566;9.774;2023-11-18T15:17:43;8.53;;;6.00;;
12925;SDS011;6529;50.566;9.774;2023-11-18T15:20:11;9.40;;;6.20;;
12925;SDS011;6529;50.566;9.774;2023-11-18T15:22:41;8.90;;;5.93;;
12925;SDS011;6529;50.566;9.774;2023-11-18T15:25:07;9.77;;;5.80;;
12925;SDS011;6529;50.566;9.774;2023-11-18T15:27:37;8.80;;;6.50;;
12925;SDS011;6529;50.566;9.774;2023-11-18T15:30:03;11.13;;;6.13;;
12925;SDS011;6529;50.566;9.774;2023-11-18T15:32:31;9.17;;;6.17;;
12925;SDS011;6529;50.566;9.774;2023-11-18T15:34:57;7.20;;;5.83;;
12925;SDS011;6529;50.566;9.774;2023-11-18T15:37:23;8.67;;;6.23;;
12925;SDS011;6529;50.566;9.774;2023-11-18T15:39:48;9.83;;;6.20;;
12925;SDS011;6529;50.566;9.774;2023-11-18T15:42:14;9.10;;;5.97;;